Hg 306 Tobis — OUPS — position and weather

sailwx.info

Track history (hours):
 
Tides and Currents Weather Stations Pressure Air Temp Water Temp Dewpoint Dewpoint Depression Visibility Wind Speed Wind Dir Waves Ship Positions

Hg 306 Tobis

Last reported at 2014-Nov-19 11:33 UTC. Time now 2014-Nov-21 20:41 UTC.
Position N 58°23' E 005°26'.

Length 40 m; draft 6.5 m.

Type: Fishing. MMSI: 219013001.

Date/timePositionNaut miles runAvg speedWind from/ knotsBaromVisibWave heightAir tempDewpointWater temp
2014-Nov-19 11:33N 58°23' E 005°26'1010.0
2014-Nov-19 10:33N 58°17' E 005°42'24 0.9
2014-Nov-18 08:15N 58°05' E 006°22'6 8.3
2014-Nov-18 07:34N 58°09' E 006°13'8 7.9
2014-Nov-18 06:33N 58°14' E 006°02'8 7.9
2014-Nov-18 05:33N 58°19' E 005°51'7 7.2
2014-Nov-18 04:33N 58°24' E 005°41'7 6.9
2014-Nov-18 03:32N 58°29' E 005°31'8 7.1
2014-Nov-18 02:27N 58°35' E 005°22'7 7.5
2014-Nov-18 01:33N 58°40' E 005°13'8 7.6
2014-Nov-18 00:33N 58°46' E 005°03'  
2014-Nov-11 07:14N 58°14' E 005°15'7 9.5
2014-Nov-11 06:32N 58°12' E 005°27'1010.2
2014-Nov-11 05:32N 58°08' E 005°45'1110.8
2014-Nov-11 04:32N 58°05' E 006°05'  
Track history (hours):
 
Tides and Currents Weather Stations Pressure Air Temp Water Temp Dewpoint Dewpoint Depression Visibility Wind Speed Wind Dir Waves Ship Positions

Hg 306 Tobis

Last reported at 2014-Nov-19 11:33 UTC. Time now 2014-Nov-21 20:41 UTC.
Position N 58°23' E 005°26'.

Length 40 m; draft 6.5 m.

Type: Fishing. MMSI: 219013001.

Date/timePositionNaut miles runAvg speedWind from/ knotsBaromVisibWave heightAir tempDewpointWater temp
2014-Nov-19 11:33N 58°23' E 005°26'1010.0
2014-Nov-19 10:33N 58°17' E 005°42'24 0.9
2014-Nov-18 08:15N 58°05' E 006°22'6 8.3
2014-Nov-18 07:34N 58°09' E 006°13'8 7.9
2014-Nov-18 06:33N 58°14' E 006°02'8 7.9
2014-Nov-18 05:33N 58°19' E 005°51'7 7.2
2014-Nov-18 04:33N 58°24' E 005°41'7 6.9
2014-Nov-18 03:32N 58°29' E 005°31'8 7.1
2014-Nov-18 02:27N 58°35' E 005°22'7 7.5
2014-Nov-18 01:33N 58°40' E 005°13'8 7.6
2014-Nov-18 00:33N 58°46' E 005°03'  
2014-Nov-11 07:14N 58°14' E 005°15'7 9.5
2014-Nov-11 06:32N 58°12' E 005°27'1010.2
2014-Nov-11 05:32N 58°08' E 005°45'1110.8
2014-Nov-11 04:32N 58°05' E 006°05'  

Dump ship's entire track history